Bahla, Oman
Current Conditions -  °F | °C
As of 8:50 PM on Monday 22 Dec 2014 (Local Time) from EQMN Reporting Station
Clear Clear  
Wind Chill: 68°   Ceiling: Unl
Heat Index: 68°   Visibility: 6mi
Dew Point: 39°   Wind: 2mph
Humidity: 35%   Direction: 220°SW
Pressure: 29.94"   Gusts: NA
Location:  22.97°N, 57.3°E
Report Text: EQMN 221650Z 22002KT 9999 SKC 20/04 Q1014 BLU NOSIG
Loading
Personal Weather Stations






























Interactive Weather Map New forecast layout! Learn more

10-Day Weather Forecast

Advertisements
Track Severe Weather on mobile